sensor_id;sensor_type;location;lat;lon;timestamp;P1;durP1;ratioP1;P2;durP2;ratioP2
5456;SDS011;2751;49.802;9.944;2022-09-02T00:01:22;2.40;;;2.00;;
5456;SDS011;2751;49.802;9.944;2022-09-02T00:03:54;3.90;;;2.70;;
5456;SDS011;2751;49.802;9.944;2022-09-02T00:06:22;2.03;;;1.90;;
5456;SDS011;2751;49.802;9.944;2022-09-02T00:08:49;3.20;;;2.50;;
5456;SDS011;2751;49.802;9.944;2022-09-02T00:11:18;2.00;;;1.90;;
5456;SDS011;2751;49.802;9.944;2022-09-02T00:13:46;2.53;;;2.33;;
5456;SDS011;2751;49.802;9.944;2022-09-02T00:16:13;2.20;;;2.00;;
5456;SDS011;2751;49.802;9.944;2022-09-02T00:18:41;2.60;;;2.40;;
5456;SDS011;2751;49.802;9.944;2022-09-02T00:21:11;2.70;;;1.90;;
5456;SDS011;2751;49.802;9.944;2022-09-02T00:23:39;6.73;;;2.00;;
5456;SDS011;2751;49.802;9.944;2022-09-02T00:26:06;4.30;;;2.40;;
5456;SDS011;2751;49.802;9.944;2022-09-02T00:28:34;2.50;;;2.30;;
5456;SDS011;2751;49.802;9.944;2022-09-02T00:31:01;4.23;;;2.60;;
5456;SDS011;2751;49.802;9.944;2022-09-02T00:33:27;3.40;;;2.80;;
5456;SDS011;2751;49.802;9.944;2022-09-02T00:35:57;2.40;;;2.20;;
5456;SDS011;2751;49.802;9.944;2022-09-02T00:38:25;2.40;;;2.20;;
5456;SDS011;2751;49.802;9.944;2022-09-02T00:40:53;4.00;;;2.20;;
5456;SDS011;2751;49.802;9.944;2022-09-02T00:43:21;2.20;;;2.10;;
5456;SDS011;2751;49.802;9.944;2022-09-02T00:45:50;2.40;;;2.30;;
5456;SDS011;2751;49.802;9.944;2022-09-02T00:48:18;2.40;;;2.20;;
5456;SDS011;2751;49.802;9.944;2022-09-02T00:50:45;4.20;;;2.10;;
5456;SDS011;2751;49.802;9.944;2022-09-02T00:53:12;4.90;;;2.40;;
5456;SDS011;2751;49.802;9.944;2022-09-02T00:55:42;2.80;;;2.60;;
5456;SDS011;2751;49.802;9.944;2022-09-02T00:58:13;3.37;;;2.80;;
5456;SDS011;2751;49.802;9.944;2022-09-02T01:00:43;4.27;;;2.90;;
5456;SDS011;2751;49.802;9.944;2022-09-02T01:03:13;3.70;;;2.10;;
5456;SDS011;2751;49.802;9.944;2022-09-02T01:05:43;2.63;;;2.40;;
5456;SDS011;2751;49.802;9.944;2022-09-02T01:08:12;7.23;;;2.90;;
5456;SDS011;2751;49.802;9.944;2022-09-02T01:10:45;2.80;;;2.50;;
5456;SDS011;2751;49.802;9.944;2022-09-02T01:13:17;3.03;;;2.70;;
5456;SDS011;2751;49.802;9.944;2022-09-02T01:15:46;3.33;;;2.57;;
5456;SDS011;2751;49.802;9.944;2022-09-02T01:18:19;2.40;;;2.20;;
5456;SDS011;2751;49.802;9.944;2022-09-02T01:20:48;3.20;;;2.60;;
5456;SDS011;2751;49.802;9.944;2022-09-02T01:23:17;5.17;;;2.50;;
5456;SDS011;2751;49.802;9.944;2022-09-02T01:25:46;3.20;;;2.40;;
5456;SDS011;2751;49.802;9.944;2022-09-02T01:28:14;4.80;;;2.43;;
5456;SDS011;2751;49.802;9.944;2022-09-02T01:30:44;4.77;;;2.30;;
5456;SDS011;2751;49.802;9.944;2022-09-02T01:33:13;2.83;;;2.63;;
5456;SDS011;2751;49.802;9.944;2022-09-02T01:35:40;2.60;;;2.40;;
5456;SDS011;2751;49.802;9.944;2022-09-02T01:38:07;3.40;;;2.40;;
5456;SDS011;2751;49.802;9.944;2022-09-02T01:40:36;3.10;;;2.30;;
5456;SDS011;2751;49.802;9.944;2022-09-02T01:43:05;2.60;;;2.40;;
5456;SDS011;2751;49.802;9.944;2022-09-02T01:45:34;2.33;;;2.20;;
5456;SDS011;2751;49.802;9.944;2022-09-02T01:48:02;5.83;;;2.40;;
5456;SDS011;2751;49.802;9.944;2022-09-02T01:50:30;4.23;;;2.67;;
5456;SDS011;2751;49.802;9.944;2022-09-02T01:52:58;3.13;;;2.53;;
5456;SDS011;2751;49.802;9.944;2022-09-02T01:55:27;3.40;;;2.40;;
5456;SDS011;2751;49.802;9.944;2022-09-02T01:57:56;3.10;;;2.60;;
5456;SDS011;2751;49.802;9.944;2022-09-02T02:00:23;3.70;;;2.80;;
5456;SDS011;2751;49.802;9.944;2022-09-02T02:02:50;2.50;;;2.40;;
5456;SDS011;2751;49.802;9.944;2022-09-02T02:05:18;2.33;;;2.20;;
5456;SDS011;2751;49.802;9.944;2022-09-02T02:07:45;2.97;;;2.63;;
5456;SDS011;2751;49.802;9.944;2022-09-02T02:10:12;6.87;;;2.93;;
5456;SDS011;2751;49.802;9.944;2022-09-02T02:12:41;3.50;;;2.50;;
5456;SDS011;2751;49.802;9.944;2022-09-02T02:15:11;2.70;;;2.50;;
5456;SDS011;2751;49.802;9.944;2022-09-02T02:17:39;4.40;;;2.20;;
5456;SDS011;2751;49.802;9.944;2022-09-02T02:20:07;2.40;;;2.23;;
5456;SDS011;2751;49.802;9.944;2022-09-02T02:22:35;2.90;;;2.37;;
5456;SDS011;2751;49.802;9.944;2022-09-02T02:25:03;4.87;;;2.60;;
5456;SDS011;2751;49.802;9.944;2022-09-02T02:27:31;2.90;;;2.70;;
5456;SDS011;2751;49.802;9.944;2022-09-02T02:29:58;3.00;;;2.70;;
5456;SDS011;2751;49.802;9.944;2022-09-02T02:32:26;3.50;;;2.27;;
5456;SDS011;2751;49.802;9.944;2022-09-02T02:34:54;3.37;;;2.57;;
5456;SDS011;2751;49.802;9.944;2022-09-02T02:37:20;2.57;;;2.37;;
5456;SDS011;2751;49.802;9.944;2022-09-02T02:39:47;2.57;;;2.37;;
5456;SDS011;2751;49.802;9.944;2022-09-02T02:42:14;3.10;;;2.30;;
5456;SDS011;2751;49.802;9.944;2022-09-02T02:44:41;2.67;;;2.43;;
5456;SDS011;2751;49.802;9.944;2022-09-02T02:47:08;5.27;;;2.33;;
5456;SDS011;2751;49.802;9.944;2022-09-02T02:49:37;4.20;;;2.40;;
5456;SDS011;2751;49.802;9.944;2022-09-02T02:52:05;2.53;;;2.40;;
5456;SDS011;2751;49.802;9.944;2022-09-02T02:54:32;3.10;;;2.50;;
5456;SDS011;2751;49.802;9.944;2022-09-02T02:56:59;2.60;;;2.40;;
5456;SDS011;2751;49.802;9.944;2022-09-02T02:59:25;2.90;;;2.30;;
5456;SDS011;2751;49.802;9.944;2022-09-02T03:01:53;2.60;;;2.40;;
5456;SDS011;2751;49.802;9.944;2022-09-02T03:04:20;2.47;;;2.10;;
5456;SDS011;2751;49.802;9.944;2022-09-02T03:06:49;2.63;;;2.40;;
5456;SDS011;2751;49.802;9.944;2022-09-02T03:09:17;2.50;;;2.30;;
5456;SDS011;2751;49.802;9.944;2022-09-02T03:11:44;3.10;;;2.60;;
5456;SDS011;2751;49.802;9.944;2022-09-02T03:14:12;2.23;;;2.13;;
5456;SDS011;2751;49.802;9.944;2022-09-02T03:16:39;2.37;;;2.17;;
5456;SDS011;2751;49.802;9.944;2022-09-02T03:19:06;4.93;;;3.20;;
5456;SDS011;2751;49.802;9.944;2022-09-02T03:21:33;3.77;;;2.50;;
5456;SDS011;2751;49.802;9.944;2022-09-02T03:24:02;3.00;;;2.80;;
5456;SDS011;2751;49.802;9.944;2022-09-02T03:26:29;3.90;;;2.80;;
5456;SDS011;2751;49.802;9.944;2022-09-02T03:28:56;3.30;;;3.10;;
5456;SDS011;2751;49.802;9.944;2022-09-02T03:31:24;2.77;;;2.53;;
5456;SDS011;2751;49.802;9.944;2022-09-02T03:33:52;2.80;;;2.50;;
5456;SDS011;2751;49.802;9.944;2022-09-02T03:36:20;4.40;;;2.50;;
5456;SDS011;2751;49.802;9.944;2022-09-02T03:38:48;5.83;;;2.67;;
5456;SDS011;2751;49.802;9.944;2022-09-02T03:41:17;2.83;;;2.63;;
5456;SDS011;2751;49.802;9.944;2022-09-02T03:43:44;6.30;;;2.70;;
5456;SDS011;2751;49.802;9.944;2022-09-02T03:46:11;2.60;;;2.40;;
5456;SDS011;2751;49.802;9.944;2022-09-02T03:48:38;3.80;;;2.80;;
5456;SDS011;2751;49.802;9.944;2022-09-02T03:51:06;2.87;;;2.67;;
5456;SDS011;2751;49.802;9.944;2022-09-02T03:53:33;2.60;;;2.40;;
5456;SDS011;2751;49.802;9.944;2022-09-02T03:56:02;2.53;;;2.33;;
5456;SDS011;2751;49.802;9.944;2022-09-02T03:58:32;5.50;;;2.37;;
5456;SDS011;2751;49.802;9.944;2022-09-02T04:00:59;2.80;;;2.33;;
5456;SDS011;2751;49.802;9.944;2022-09-02T04:03:27;2.90;;;2.60;;
5456;SDS011;2751;49.802;9.944;2022-09-02T04:05:53;7.77;;;3.17;;
5456;SDS011;2751;49.802;9.944;2022-09-02T04:08:21;3.77;;;3.00;;
5456;SDS011;2751;49.802;9.944;2022-09-02T04:10:48;2.90;;;2.57;;
5456;SDS011;2751;49.802;9.944;2022-09-02T04:13:15;3.63;;;2.70;;
5456;SDS011;2751;49.802;9.944;2022-09-02T04:15:44;5.30;;;2.90;;
5456;SDS011;2751;49.802;9.944;2022-09-02T04:18:13;3.90;;;2.83;;
5456;SDS011;2751;49.802;9.944;2022-09-02T04:20:41;2.50;;;2.30;;
5456;SDS011;2751;49.802;9.944;2022-09-02T04:23:08;3.93;;;2.50;;
5456;SDS011;2751;49.802;9.944;2022-09-02T04:25:37;3.00;;;2.70;;
5456;SDS011;2751;49.802;9.944;2022-09-02T04:28:05;4.87;;;2.90;;
5456;SDS011;2751;49.802;9.944;2022-09-02T04:30:32;3.00;;;2.80;;
5456;SDS011;2751;49.802;9.944;2022-09-02T04:33:00;5.23;;;3.30;;
5456;SDS011;2751;49.802;9.944;2022-09-02T04:35:27;3.60;;;2.90;;
5456;SDS011;2751;49.802;9.944;2022-09-02T04:37:53;4.33;;;2.57;;
5456;SDS011;2751;49.802;9.944;2022-09-02T04:40:20;3.33;;;2.80;;
5456;SDS011;2751;49.802;9.944;2022-09-02T04:42:48;3.20;;;2.77;;
5456;SDS011;2751;49.802;9.944;2022-09-02T04:45:16;5.80;;;3.40;;
5456;SDS011;2751;49.802;9.944;2022-09-02T04:47:43;3.40;;;2.97;;
5456;SDS011;2751;49.802;9.944;2022-09-02T04:50:11;5.37;;;3.30;;
5456;SDS011;2751;49.802;9.944;2022-09-02T04:52:38;7.80;;;3.57;;
5456;SDS011;2751;49.802;9.944;2022-09-02T04:55:05;9.80;;;3.90;;
5456;SDS011;2751;49.802;9.944;2022-09-02T04:57:32;8.30;;;3.30;;
5456;SDS011;2751;49.802;9.944;2022-09-02T05:00:00;3.50;;;3.20;;
5456;SDS011;2751;49.802;9.944;2022-09-02T05:02:28;4.93;;;3.20;;
5456;SDS011;2751;49.802;9.944;2022-09-02T05:04:55;4.50;;;2.80;;
5456;SDS011;2751;49.802;9.944;2022-09-02T05:07:23;3.50;;;3.13;;
5456;SDS011;2751;49.802;9.944;2022-09-02T05:09:54;3.73;;;2.80;;
5456;SDS011;2751;49.802;9.944;2022-09-02T05:12:22;4.90;;;2.80;;
5456;SDS011;2751;49.802;9.944;2022-09-02T05:14:52;4.07;;;2.80;;
5456;SDS011;2751;49.802;9.944;2022-09-02T05:17:19;4.70;;;3.27;;
5456;SDS011;2751;49.802;9.944;2022-09-02T05:19:47;3.00;;;2.77;;
5456;SDS011;2751;49.802;9.944;2022-09-02T05:22:14;6.40;;;3.50;;
5456;SDS011;2751;49.802;9.944;2022-09-02T05:24:42;10.77;;;4.07;;
5456;SDS011;2751;49.802;9.944;2022-09-02T05:27:09;8.50;;;3.37;;
5456;SDS011;2751;49.802;9.944;2022-09-02T05:29:36;4.93;;;3.50;;
5456;SDS011;2751;49.802;9.944;2022-09-02T05:32:03;6.33;;;3.50;;
5456;SDS011;2751;49.802;9.944;2022-09-02T05:34:32;6.23;;;2.80;;
5456;SDS011;2751;49.802;9.944;2022-09-02T05:36:59;5.47;;;3.23;;
5456;SDS011;2751;49.802;9.944;2022-09-02T05:39:26;3.83;;;3.10;;
5456;SDS011;2751;49.802;9.944;2022-09-02T05:41:55;5.17;;;3.10;;
5456;SDS011;2751;49.802;9.944;2022-09-02T05:44:22;3.20;;;2.90;;
5456;SDS011;2751;49.802;9.944;2022-09-02T05:46:49;4.13;;;3.50;;
5456;SDS011;2751;49.802;9.944;2022-09-02T05:49:17;4.67;;;3.23;;
5456;SDS011;2751;49.802;9.944;2022-09-02T05:51:46;8.57;;;3.97;;
5456;SDS011;2751;49.802;9.944;2022-09-02T05:54:15;6.40;;;3.70;;
5456;SDS011;2751;49.802;9.944;2022-09-02T05:56:46;3.73;;;3.07;;
5456;SDS011;2751;49.802;9.944;2022-09-02T05:59:15;4.47;;;3.87;;
5456;SDS011;2751;49.802;9.944;2022-09-02T06:01:43;17.27;;;3.80;;
5456;SDS011;2751;49.802;9.944;2022-09-02T06:04:10;8.83;;;3.83;;
5456;SDS011;2751;49.802;9.944;2022-09-02T06:06:37;5.20;;;3.50;;
5456;SDS011;2751;49.802;9.944;2022-09-02T06:09:05;4.80;;;2.77;;
5456;SDS011;2751;49.802;9.944;2022-09-02T06:11:33;4.33;;;3.70;;
5456;SDS011;2751;49.802;9.944;2022-09-02T06:14:04;6.00;;;3.10;;
5456;SDS011;2751;49.802;9.944;2022-09-02T06:16:33;4.47;;;3.80;;
5456;SDS011;2751;49.802;9.944;2022-09-02T06:19:00;3.47;;;3.13;;
5456;SDS011;2751;49.802;9.944;2022-09-02T06:21:28;5.87;;;3.40;;
5456;SDS011;2751;49.802;9.944;2022-09-02T06:23:54;12.90;;;3.27;;
5456;SDS011;2751;49.802;9.944;2022-09-02T06:26:21;2.37;;;2.20;;
5456;SDS011;2751;49.802;9.944;2022-09-02T06:28:48;6.07;;;3.23;;
5456;SDS011;2751;49.802;9.944;2022-09-02T06:31:16;3.97;;;2.67;;
5456;SDS011;2751;49.802;9.944;2022-09-02T06:33:46;6.73;;;3.37;;
5456;SDS011;2751;49.802;9.944;2022-09-02T06:36:16;4.63;;;3.30;;
5456;SDS011;2751;49.802;9.944;2022-09-02T06:38:45;8.57;;;3.50;;
5456;SDS011;2751;49.802;9.944;2022-09-02T06:41:15;4.47;;;2.67;;
5456;SDS011;2751;49.802;9.944;2022-09-02T06:43:43;6.13;;;2.83;;
5456;SDS011;2751;49.802;9.944;2022-09-02T06:46:13;5.23;;;2.10;;
5456;SDS011;2751;49.802;9.944;2022-09-02T06:48:41;4.37;;;2.27;;
5456;SDS011;2751;49.802;9.944;2022-09-02T06:51:14;3.10;;;2.80;;
5456;SDS011;2751;49.802;9.944;2022-09-02T06:53:41;4.40;;;2.53;;
5456;SDS011;2751;49.802;9.944;2022-09-02T06:56:08;6.30;;;2.60;;
5456;SDS011;2751;49.802;9.944;2022-09-02T06:58:35;4.23;;;2.40;;
5456;SDS011;2751;49.802;9.944;2022-09-02T07:01:02;2.73;;;2.40;;
5456;SDS011;2751;49.802;9.944;2022-09-02T07:03:29;4.63;;;2.23;;
5456;SDS011;2751;49.802;9.944;2022-09-02T07:06:15;2.93;;;1.97;;
5456;SDS011;2751;49.802;9.944;2022-09-02T07:08:42;2.93;;;2.13;;
5456;SDS011;2751;49.802;9.944;2022-09-02T07:11:14;2.93;;;2.60;;
5456;SDS011;2751;49.802;9.944;2022-09-02T07:13:42;2.60;;;2.07;;
5456;SDS011;2751;49.802;9.944;2022-09-02T07:16:09;2.47;;;2.27;;
5456;SDS011;2751;49.802;9.944;2022-09-02T07:18:36;2.50;;;2.30;;
5456;SDS011;2751;49.802;9.944;2022-09-02T07:21:03;2.57;;;2.40;;
5456;SDS011;2751;49.802;9.944;2022-09-02T07:23:34;2.80;;;2.00;;
5456;SDS011;2751;49.802;9.944;2022-09-02T07:26:01;2.50;;;2.07;;
5456;SDS011;2751;49.802;9.944;2022-09-02T07:28:29;4.97;;;1.77;;
5456;SDS011;2751;49.802;9.944;2022-09-02T07:30:56;2.30;;;2.10;;
5456;SDS011;2751;49.802;9.944;2022-09-02T07:33:22;2.97;;;1.93;;
5456;SDS011;2751;49.802;9.944;2022-09-02T07:35:49;4.00;;;2.30;;
5456;SDS011;2751;49.802;9.944;2022-09-02T07:38:17;3.40;;;2.00;;
5456;SDS011;2751;49.802;9.944;2022-09-02T07:40:45;2.93;;;1.80;;
5456;SDS011;2751;49.802;9.944;2022-09-02T07:43:14;2.80;;;1.97;;
5456;SDS011;2751;49.802;9.944;2022-09-02T07:45:42;6.57;;;2.00;;
5456;SDS011;2751;49.802;9.944;2022-09-02T07:48:09;3.13;;;1.97;;
5456;SDS011;2751;49.802;9.944;2022-09-02T07:50:36;1.80;;;1.70;;
5456;SDS011;2751;49.802;9.944;2022-09-02T07:53:04;3.70;;;2.10;;
5456;SDS011;2751;49.802;9.944;2022-09-02T07:55:31;1.77;;;1.60;;
5456;SDS011;2751;49.802;9.944;2022-09-02T07:58:02;3.10;;;1.70;;
5456;SDS011;2751;49.802;9.944;2022-09-02T08:00:29;4.93;;;1.90;;
5456;SDS011;2751;49.802;9.944;2022-09-02T08:02:56;1.97;;;1.67;;
5456;SDS011;2751;49.802;9.944;2022-09-02T08:05:24;2.43;;;1.70;;
5456;SDS011;2751;49.802;9.944;2022-09-02T08:07:52;4.87;;;2.00;;
5456;SDS011;2751;49.802;9.944;2022-09-02T08:10:18;1.70;;;1.60;;
5456;SDS011;2751;49.802;9.944;2022-09-02T08:12:46;2.23;;;2.03;;
5456;SDS011;2751;49.802;9.944;2022-09-02T08:15:15;8.53;;;2.30;;
5456;SDS011;2751;49.802;9.944;2022-09-02T08:17:44;2.47;;;2.27;;
5456;SDS011;2751;49.802;9.944;2022-09-02T08:20:11;2.80;;;2.10;;
5456;SDS011;2751;49.802;9.944;2022-09-02T08:22:39;5.43;;;2.10;;
5456;SDS011;2751;49.802;9.944;2022-09-02T08:25:06;5.73;;;2.33;;
5456;SDS011;2751;49.802;9.944;2022-09-02T08:27:34;4.20;;;2.00;;
5456;SDS011;2751;49.802;9.944;2022-09-02T08:30:02;1.87;;;1.73;;
5456;SDS011;2751;49.802;9.944;2022-09-02T08:32:31;2.60;;;1.97;;
5456;SDS011;2751;49.802;9.944;2022-09-02T08:34:58;3.40;;;2.10;;
5456;SDS011;2751;49.802;9.944;2022-09-02T08:37:26;1.80;;;1.50;;
5456;SDS011;2751;49.802;9.944;2022-09-02T08:39:55;2.23;;;2.03;;
5456;SDS011;2751;49.802;9.944;2022-09-02T08:42:23;5.33;;;1.97;;
5456;SDS011;2751;49.802;9.944;2022-09-02T08:44:57;7.97;;;2.00;;
5456;SDS011;2751;49.802;9.944;2022-09-02T08:47:30;4.80;;;2.00;;
5456;SDS011;2751;49.802;9.944;2022-09-02T08:50:02;2.20;;;2.00;;
5456;SDS011;2751;49.802;9.944;2022-09-02T08:52:32;1.80;;;1.70;;
5456;SDS011;2751;49.802;9.944;2022-09-02T08:55:04;3.70;;;1.97;;
5456;SDS011;2751;49.802;9.944;2022-09-02T08:57:33;2.00;;;1.90;;
5456;SDS011;2751;49.802;9.944;2022-09-02T09:00:01;2.67;;;1.90;;
5456;SDS011;2751;49.802;9.944;2022-09-02T09:02:32;2.93;;;1.80;;
5456;SDS011;2751;49.802;9.944;2022-09-02T09:05:10;3.43;;;1.60;;
5456;SDS011;2751;49.802;9.944;2022-09-02T09:07:47;3.37;;;2.10;;
5456;SDS011;2751;49.802;9.944;2022-09-02T09:10:27;1.77;;;1.67;;
5456;SDS011;2751;49.802;9.944;2022-09-02T09:13:03;3.00;;;1.80;;
5456;SDS011;2751;49.802;9.944;2022-09-02T09:15:57;1.90;;;1.80;;
5456;SDS011;2751;49.802;9.944;2022-09-02T09:18:35;2.10;;;1.90;;
5456;SDS011;2751;49.802;9.944;2022-09-02T09:21:04;5.60;;;1.80;;
5456;SDS011;2751;49.802;9.944;2022-09-02T09:23:32;1.67;;;1.50;;
5456;SDS011;2751;49.802;9.944;2022-09-02T09:26:06;1.73;;;1.33;;
5456;SDS011;2751;49.802;9.944;2022-09-02T09:28:38;2.40;;;1.70;;
5456;SDS011;2751;49.802;9.944;2022-09-02T09:31:08;4.93;;;1.40;;
5456;SDS011;2751;49.802;9.944;2022-09-02T09:33:38;1.83;;;1.67;;
5456;SDS011;2751;49.802;9.944;2022-09-02T09:36:19;1.73;;;1.50;;
5456;SDS011;2751;49.802;9.944;2022-09-02T09:38:51;2.10;;;1.63;;
5456;SDS011;2751;49.802;9.944;2022-09-02T09:41:18;1.67;;;1.57;;
5456;SDS011;2751;49.802;9.944;2022-09-02T09:43:48;2.23;;;1.53;;
5456;SDS011;2751;49.802;9.944;2022-09-02T09:46:19;1.60;;;1.50;;
5456;SDS011;2751;49.802;9.944;2022-09-02T09:48:52;8.73;;;5.20;;
5456;SDS011;2751;49.802;9.944;2022-09-02T09:51:19;2.53;;;2.33;;
5456;SDS011;2751;49.802;9.944;2022-09-02T09:53:46;1.77;;;1.67;;
5456;SDS011;2751;49.802;9.944;2022-09-02T09:56:23;1.50;;;1.40;;
5456;SDS011;2751;49.802;9.944;2022-09-02T09:59:00;1.83;;;1.60;;
5456;SDS011;2751;49.802;9.944;2022-09-02T10:01:28;1.40;;;1.27;;
5456;SDS011;2751;49.802;9.944;2022-09-02T10:03:58;2.97;;;1.90;;
5456;SDS011;2751;49.802;9.944;2022-09-02T10:06:38;3.03;;;2.80;;
5456;SDS011;2751;49.802;9.944;2022-09-02T10:09:23;1.30;;;1.20;;
5456;SDS011;2751;49.802;9.944;2022-09-02T10:11:56;4.80;;;1.40;;
5456;SDS011;2751;49.802;9.944;2022-09-02T10:14:25;2.97;;;1.30;;
5456;SDS011;2751;49.802;9.944;2022-09-02T10:16:58;3.03;;;1.67;;
5456;SDS011;2751;49.802;9.944;2022-09-02T10:19:58;1.50;;;1.40;;
5456;SDS011;2751;49.802;9.944;2022-09-02T10:22:39;2.97;;;1.20;;
5456;SDS011;2751;49.802;9.944;2022-09-02T10:25:33;2.10;;;1.63;;
5456;SDS011;2751;49.802;9.944;2022-09-02T10:28:09;1.60;;;1.50;;
5456;SDS011;2751;49.802;9.944;2022-09-02T10:30:43;1.30;;;1.20;;
5456;SDS011;2751;49.802;9.944;2022-09-02T10:33:29;1.40;;;1.30;;
5456;SDS011;2751;49.802;9.944;2022-09-02T10:36:15;1.20;;;1.20;;
5456;SDS011;2751;49.802;9.944;2022-09-02T10:38:52;1.20;;;1.10;;
5456;SDS011;2751;49.802;9.944;2022-09-02T10:41:34;1.53;;;1.43;;
5456;SDS011;2751;49.802;9.944;2022-09-02T10:44:10;1.70;;;1.50;;
5456;SDS011;2751;49.802;9.944;2022-09-02T10:46:59;4.30;;;1.60;;
5456;SDS011;2751;49.802;9.944;2022-09-02T10:49:31;1.53;;;1.43;;
5456;SDS011;2751;49.802;9.944;2022-09-02T10:52:37;1.50;;;1.40;;
5456;SDS011;2751;49.802;9.944;2022-09-02T10:55:18;1.37;;;1.33;;
5456;SDS011;2751;49.802;9.944;2022-09-02T10:57:56;2.20;;;1.63;;
5456;SDS011;2751;49.802;9.944;2022-09-02T11:00:26;3.93;;;1.70;;
5456;SDS011;2751;49.802;9.944;2022-09-02T11:02:57;1.63;;;1.53;;
5456;SDS011;2751;49.802;9.944;2022-09-02T11:05:33;2.50;;;1.10;;
5456;SDS011;2751;49.802;9.944;2022-09-02T11:08:11;3.83;;;1.33;;
5456;SDS011;2751;49.802;9.944;2022-09-02T11:10:40;1.53;;;1.43;;
5456;SDS011;2751;49.802;9.944;2022-09-02T11:13:12;3.80;;;1.90;;
5456;SDS011;2751;49.802;9.944;2022-09-02T11:15:46;1.30;;;1.30;;
5456;SDS011;2751;49.802;9.944;2022-09-02T11:18:19;2.13;;;1.50;;
5456;SDS011;2751;49.802;9.944;2022-09-02T11:20:55;2.27;;;1.60;;
5456;SDS011;2751;49.802;9.944;2022-09-02T11:23:31;1.40;;;1.40;;
5456;SDS011;2751;49.802;9.944;2022-09-02T11:26:03;1.70;;;1.63;;
5456;SDS011;2751;49.802;9.944;2022-09-02T11:28:37;2.57;;;1.47;;
5456;SDS011;2751;49.802;9.944;2022-09-02T11:31:13;3.70;;;1.67;;
5456;SDS011;2751;49.802;9.944;2022-09-02T11:33:47;4.10;;;3.70;;
5456;SDS011;2751;49.802;9.944;2022-09-02T11:36:20;1.77;;;1.47;;
5456;SDS011;2751;49.802;9.944;2022-09-02T11:38:50;1.30;;;1.20;;
5456;SDS011;2751;49.802;9.944;2022-09-02T11:41:24;2.00;;;1.30;;
5456;SDS011;2751;49.802;9.944;2022-09-02T11:43:54;1.80;;;1.70;;
5456;SDS011;2751;49.802;9.944;2022-09-02T11:46:34;1.20;;;1.10;;
5456;SDS011;2751;49.802;9.944;2022-09-02T11:49:26;1.83;;;1.40;;
5456;SDS011;2751;49.802;9.944;2022-09-02T11:52:07;1.17;;;1.17;;
5456;SDS011;2751;49.802;9.944;2022-09-02T11:54:48;1.60;;;1.50;;
5456;SDS011;2751;49.802;9.944;2022-09-02T11:57:24;1.53;;;1.17;;
5456;SDS011;2751;49.802;9.944;2022-09-02T12:00:03;4.37;;;1.30;;
5456;SDS011;2751;49.802;9.944;2022-09-02T12:02:37;2.17;;;1.20;;
5456;SDS011;2751;49.802;9.944;2022-09-02T12:08:12;2.50;;;1.70;;
5456;SDS011;2751;49.802;9.944;2022-09-02T12:11:02;3.17;;;1.30;;
5456;SDS011;2751;49.802;9.944;2022-09-02T12:13:32;2.40;;;1.20;;
5456;SDS011;2751;49.802;9.944;2022-09-02T12:19:16;1.30;;;1.20;;
5456;SDS011;2751;49.802;9.944;2022-09-02T12:24:51;1.33;;;1.20;;
5456;SDS011;2751;49.802;9.944;2022-09-02T12:27:24;1.60;;;1.50;;
5456;SDS011;2751;49.802;9.944;2022-09-02T12:29:53;1.57;;;1.30;;
5456;SDS011;2751;49.802;9.944;2022-09-02T12:35:30;1.47;;;1.37;;
5456;SDS011;2751;49.802;9.944;2022-09-02T12:40:54;3.47;;;1.30;;
5456;SDS011;2751;49.802;9.944;2022-09-02T12:43:30;1.00;;;1.00;;
5456;SDS011;2751;49.802;9.944;2022-09-02T12:46:05;2.30;;;1.30;;
5456;SDS011;2751;49.802;9.944;2022-09-02T12:48:44;3.23;;;1.40;;
5456;SDS011;2751;49.802;9.944;2022-09-02T12:54:18;2.13;;;1.43;;
5456;SDS011;2751;49.802;9.944;2022-09-02T12:56:51;1.33;;;1.13;;
5456;SDS011;2751;49.802;9.944;2022-09-02T12:59:25;1.07;;;1.07;;
5456;SDS011;2751;49.802;9.944;2022-09-02T13:01:58;1.40;;;1.30;;
5456;SDS011;2751;49.802;9.944;2022-09-02T13:04:50;1.30;;;1.30;;
5456;SDS011;2751;49.802;9.944;2022-09-02T13:07:49;1.40;;;1.30;;
5456;SDS011;2751;49.802;9.944;2022-09-02T13:13:45;1.30;;;1.30;;
5456;SDS011;2751;49.802;9.944;2022-09-02T13:16:38;3.53;;;1.30;;
5456;SDS011;2751;49.802;9.944;2022-09-02T13:19:21;1.70;;;1.60;;
5456;SDS011;2751;49.802;9.944;2022-09-02T13:22:16;2.50;;;1.20;;
5456;SDS011;2751;49.802;9.944;2022-09-02T13:25:10;1.30;;;1.30;;
5456;SDS011;2751;49.802;9.944;2022-09-02T13:31:06;1.40;;;1.30;;
5456;SDS011;2751;49.802;9.944;2022-09-02T13:33:45;1.53;;;1.10;;
5456;SDS011;2751;49.802;9.944;2022-09-02T13:36:18;1.83;;;1.73;;
5456;SDS011;2751;49.802;9.944;2022-09-02T13:38:52;1.67;;;1.27;;
5456;SDS011;2751;49.802;9.944;2022-09-02T13:41:26;1.57;;;1.57;;
5456;SDS011;2751;49.802;9.944;2022-09-02T13:44:07;1.40;;;1.40;;
5456;SDS011;2751;49.802;9.944;2022-09-02T13:46:42;1.30;;;1.23;;
5456;SDS011;2751;49.802;9.944;2022-09-02T13:49:18;1.77;;;1.67;;
5456;SDS011;2751;49.802;9.944;2022-09-02T13:51:47;1.93;;;1.30;;
5456;SDS011;2751;49.802;9.944;2022-09-02T13:54:20;1.40;;;1.40;;
5456;SDS011;2751;49.802;9.944;2022-09-02T13:56:55;1.30;;;1.30;;
5456;SDS011;2751;49.802;9.944;2022-09-02T13:59:32;3.80;;;2.53;;
5456;SDS011;2751;49.802;9.944;2022-09-02T14:04:56;1.50;;;1.40;;
5456;SDS011;2751;49.802;9.944;2022-09-02T14:07:30;1.50;;;1.40;;
5456;SDS011;2751;49.802;9.944;2022-09-02T14:10:02;1.57;;;1.47;;
5456;SDS011;2751;49.802;9.944;2022-09-02T14:12:32;4.40;;;1.40;;
5456;SDS011;2751;49.802;9.944;2022-09-02T14:15:01;2.60;;;2.40;;
5456;SDS011;2751;49.802;9.944;2022-09-02T14:17:30;2.40;;;1.80;;
5456;SDS011;2751;49.802;9.944;2022-09-02T14:20:15;3.63;;;2.53;;
5456;SDS011;2751;49.802;9.944;2022-09-02T14:22:50;3.30;;;2.00;;
5456;SDS011;2751;49.802;9.944;2022-09-02T14:25:18;2.77;;;1.50;;
5456;SDS011;2751;49.802;9.944;2022-09-02T14:27:47;1.70;;;1.60;;
5456;SDS011;2751;49.802;9.944;2022-09-02T14:30:23;2.30;;;1.90;;
5456;SDS011;2751;49.802;9.944;2022-09-02T14:33:15;3.07;;;2.13;;
5456;SDS011;2751;49.802;9.944;2022-09-02T14:35:58;1.80;;;1.70;;
5456;SDS011;2751;49.802;9.944;2022-09-02T14:38:26;5.13;;;2.27;;
5456;SDS011;2751;49.802;9.944;2022-09-02T14:40:58;2.70;;;1.83;;
5456;SDS011;2751;49.802;9.944;2022-09-02T14:43:26;2.27;;;2.10;;
5456;SDS011;2751;49.802;9.944;2022-09-02T14:46:03;1.90;;;1.77;;
5456;SDS011;2751;49.802;9.944;2022-09-02T14:48:34;2.03;;;1.93;;
5456;SDS011;2751;49.802;9.944;2022-09-02T14:51:05;2.30;;;2.10;;
5456;SDS011;2751;49.802;9.944;2022-09-02T14:53:33;4.37;;;2.00;;
5456;SDS011;2751;49.802;9.944;2022-09-02T14:56:02;2.20;;;2.00;;
5456;SDS011;2751;49.802;9.944;2022-09-02T14:58:30;3.23;;;2.10;;
5456;SDS011;2751;49.802;9.944;2022-09-02T15:00:57;2.00;;;1.90;;
5456;SDS011;2751;49.802;9.944;2022-09-02T15:03:26;1.97;;;1.80;;
5456;SDS011;2751;49.802;9.944;2022-09-02T15:05:54;2.40;;;2.30;;
5456;SDS011;2751;49.802;9.944;2022-09-02T15:08:22;2.97;;;1.97;;
5456;SDS011;2751;49.802;9.944;2022-09-02T15:10:49;2.07;;;1.97;;
5456;SDS011;2751;49.802;9.944;2022-09-02T15:13:21;2.43;;;2.30;;
5456;SDS011;2751;49.802;9.944;2022-09-02T15:15:52;2.20;;;2.10;;
5456;SDS011;2751;49.802;9.944;2022-09-02T15:18:20;3.27;;;2.10;;
5456;SDS011;2751;49.802;9.944;2022-09-02T15:20:47;1.93;;;1.83;;
5456;SDS011;2751;49.802;9.944;2022-09-02T15:23:14;2.23;;;2.03;;
5456;SDS011;2751;49.802;9.944;2022-09-02T15:25:43;2.30;;;2.20;;
5456;SDS011;2751;49.802;9.944;2022-09-02T15:28:10;2.03;;;1.93;;
5456;SDS011;2751;49.802;9.944;2022-09-02T15:30:38;4.23;;;2.30;;
5456;SDS011;2751;49.802;9.944;2022-09-02T15:33:06;1.90;;;1.80;;
5456;SDS011;2751;49.802;9.944;2022-09-02T15:35:34;1.70;;;1.60;;
5456;SDS011;2751;49.802;9.944;2022-09-02T15:38:01;2.00;;;1.90;;
5456;SDS011;2751;49.802;9.944;2022-09-02T15:40:29;2.13;;;2.03;;
5456;SDS011;2751;49.802;9.944;2022-09-02T15:42:58;3.33;;;2.30;;
5456;SDS011;2751;49.802;9.944;2022-09-02T15:45:25;1.90;;;1.80;;
5456;SDS011;2751;49.802;9.944;2022-09-02T15:47:55;1.63;;;1.53;;
5456;SDS011;2751;49.802;9.944;2022-09-02T15:50:22;1.73;;;1.63;;
5456;SDS011;2751;49.802;9.944;2022-09-02T15:52:49;2.33;;;1.97;;
5456;SDS011;2751;49.802;9.944;2022-09-02T15:55:16;2.53;;;1.80;;
5456;SDS011;2751;49.802;9.944;2022-09-02T15:57:43;2.27;;;2.10;;
5456;SDS011;2751;49.802;9.944;2022-09-02T16:00:11;2.33;;;2.23;;
5456;SDS011;2751;49.802;9.944;2022-09-02T16:02:40;2.43;;;2.20;;
5456;SDS011;2751;49.802;9.944;2022-09-02T16:05:07;2.30;;;2.20;;